Time;durP1;ratioP1;P1;durP2;ratioP2;P2;SDS_P1;SDS_P2;PMS_P1;PMS_P2;Temp;Humidity;BMP_temperature;BMP_pressure;BME280_temperature;BME280_humidity;BME280_pressure;Samples;Min_cycle;Max_cycle;Signal;HPM_P1;HPM_P2
2021/06/28 00:01:10;;;;;;;14.95;8.27;;;;;;;21.07;73.54;100126.63;5110120;28;20114;-21
2021/06/28 00:03:36;;;;;;;12.93;8.07;;;;;;;21.05;73.38;100150.53;5110219;28;20038;-21
2021/06/28 00:06:02;;;;;;;20.02;8.75;;;;;;;21.20;72.92;100136.00;5109635;28;20415;-21
2021/06/28 00:08:27;;;;;;;20.15;8.20;;;;;;;21.19;72.99;100146.03;5109717;28;20058;-21
2021/06/28 00:10:53;;;;;;;22.05;8.45;;;;;;;21.14;73.55;100148.78;5091947;28;20035;-21
2021/06/28 00:13:19;;;;;;;16.33;8.25;;;;;;;21.23;73.38;100147.06;5109882;28;20043;-21
2021/06/28 00:15:44;;;;;;;20.73;9.05;;;;;;;21.20;73.51;100152.25;5109548;28;20031;-21
2021/06/28 00:18:10;;;;;;;20.05;8.57;;;;;;;21.06;73.79;100141.28;5109976;28;20042;-21
2021/06/28 00:20:36;;;;;;;17.55;8.52;;;;;;;21.05;74.19;100145.09;5109756;28;20514;-21
2021/06/28 00:23:02;;;;;;;15.48;8.48;;;;;;;20.95;74.36;100139.78;5091238;28;20030;-21
2021/06/28 00:25:27;;;;;;;19.63;9.25;;;;;;;21.36;72.89;100150.19;5091618;28;20043;-21
2021/06/28 00:27:53;;;;;;;19.73;8.98;;;;;;;21.44;71.92;100142.25;5109352;28;20082;-21
2021/06/28 00:30:19;;;;;;;19.67;8.73;;;;;;;21.62;71.18;100148.03;5109657;28;20499;-21
2021/06/28 00:32:45;;;;;;;23.90;9.15;;;;;;;21.69;70.25;100148.47;5091505;28;20058;-21
2021/06/28 00:35:11;;;;;;;25.52;9.02;;;;;;;21.80;68.65;100159.97;5109759;28;20505;-21
2021/06/28 00:37:37;;;;;;;24.75;8.55;;;;;;;21.52;66.73;100153.56;5074398;28;20032;-22
2021/06/28 00:40:03;;;;;;;16.95;8.02;;;;;;;21.74;68.73;100147.56;5109392;28;20031;-21
2021/06/28 00:42:29;;;;;;;24.48;9.15;;;;;;;20.99;72.22;100157.88;5109570;28;20035;-21
2021/06/28 00:44:54;;;;;;;28.95;7.90;;;;;;;21.39;66.32;100150.44;5109232;28;20031;-21
2021/06/28 00:47:20;;;;;;;18.73;5.95;;;;;;;21.89;64.52;100147.38;5109295;28;20027;-21
2021/06/28 00:49:46;;;;;;;20.80;7.57;;;;;;;21.94;68.04;100154.66;5109021;28;20024;-21
2021/06/28 00:52:12;;;;;;;18.50;8.02;;;;;;;21.98;65.20;100147.53;5108967;28;20039;-21
2021/06/28 00:54:37;;;;;;;16.02;7.90;;;;;;;21.97;66.60;100140.50;5108908;28;20028;-21
2021/06/28 00:57:03;;;;;;;19.27;8.25;;;;;;;21.63;67.67;100146.91;5109415;28;20031;-21
2021/06/28 00:59:29;;;;;;;16.45;8.77;;;;;;;21.50;69.20;100131.34;5108697;28;20023;-21
2021/06/28 01:01:54;;;;;;;17.35;8.95;;;;;;;21.56;69.79;100139.13;5090486;28;20063;-21
2021/06/28 01:04:20;;;;;;;23.02;8.75;;;;;;;21.87;66.95;100141.44;5090712;28;20034;-21
2021/06/28 01:06:45;;;;;;;18.75;9.20;;;;;;;21.35;70.89;100148.56;5108691;28;20482;-21
2021/06/28 01:09:11;;;;;;;18.13;10.10;;;;;;;21.08;71.85;100133.66;5108667;28;20047;-21
2021/06/28 01:11:36;;;;;;;16.80;10.68;;;;;;;21.00;72.82;100147.84;5090421;28;20501;-21
2021/06/28 01:14:02;;;;;;;17.02;10.75;;;;;;;21.21;71.70;100146.56;5073509;28;20050;-21
2021/06/28 01:16:27;;;;;;;21.85;10.18;;;;;;;21.45;70.93;100149.31;5109010;28;20554;-21
2021/06/28 01:18:53;;;;;;;16.95;10.73;;;;;;;21.07;72.65;100138.28;5073646;28;20039;-21
2021/06/28 01:21:18;;;;;;;15.98;9.40;;;;;;;21.18;71.40;100147.13;5090326;28;20771;-21
2021/06/28 01:23:44;;;;;;;25.00;10.13;;;;;;;21.80;67.43;100139.09;5108513;28;20088;-21
2021/06/28 01:26:10;;;;;;;18.67;9.90;;;;;;;21.81;68.70;100126.31;5108603;28;20027;-21
2021/06/28 01:28:37;;;;;;;16.45;9.10;;;;;;;21.40;69.55;100133.03;5089919;28;20036;-21
2021/06/28 01:31:05;;;;;;;17.10;9.52;;;;;;;21.67;69.34;100129.75;5108345;28;20088;-21
2021/06/28 01:33:30;;;;;;;;;;;;;;;21.78;68.22;100146.72;5108683;28;20032;-22
2021/06/28 01:35:56;;;;;;;19.23;9.00;;;;;;;22.20;66.84;100157.81;5107878;28;20080;-21
2021/06/28 01:38:21;;;;;;;17.02;8.57;;;;;;;22.48;64.44;100142.47;5108053;28;20027;-21
2021/06/28 01:40:47;;;;;;;13.15;8.35;;;;;;;22.56;64.48;100162.75;5108209;28;20028;-21
2021/06/28 01:43:13;;;;;;;19.30;8.82;;;;;;;22.65;64.49;100155.50;5089958;28;20472;-21
2021/06/28 01:45:38;;;;;;;17.27;8.13;;;;;;;22.74;64.04;100155.63;5108208;28;20088;-21
2021/06/28 01:48:04;;;;;;;15.35;8.57;;;;;;;22.95;63.09;100161.53;5108004;28;20062;-21
2021/06/28 01:50:31;;;;;;;17.73;9.10;;;;;;;23.09;63.28;100156.97;5089674;28;20047;-21
2021/06/28 01:52:57;;;;;;;13.13;8.13;;;;;;;22.91;63.27;100160.53;5089620;28;20035;-21
2021/06/28 01:55:22;;;;;;;21.33;9.13;;;;;;;22.75;64.54;100166.22;5089773;28;20027;-21
2021/06/28 01:57:52;;;;;;;18.25;9.80;;;;;;;21.95;68.13;100162.50;5107442;28;20030;-21
2021/06/28 02:00:21;;;;;;;16.60;8.73;;;;;;;21.65;68.54;100150.94;5089635;28;20567;-21
2021/06/28 02:03:00;;;;;;;14.98;10.00;;;;;;;21.91;67.87;100160.69;5107899;28;20078;-22
2021/06/28 02:05:27;;;;;;;15.13;10.00;;;;;;;21.94;68.53;100160.88;5108129;28;20070;-21
2021/06/28 02:07:52;;;;;;;20.38;10.93;;;;;;;21.60;70.15;100142.88;5089435;28;20876;-21
2021/06/28 02:10:18;;;;;;;17.15;10.50;;;;;;;21.81;68.75;100156.19;5107027;28;20039;-21
2021/06/28 02:12:43;;;;;;;18.23;10.68;;;;;;;21.60;69.74;100151.03;5107668;28;20418;-21
2021/06/28 02:15:16;;;;;;;13.70;9.40;;;;;;;21.84;69.04;100148.28;5107802;28;20119;-21
2021/06/28 02:17:41;;;;;;;20.15;10.20;;;;;;;22.16;67.94;100168.44;5107768;28;20024;-21
2021/06/28 02:20:07;;;;;;;14.98;10.73;;;;;;;22.21;67.53;100153.97;5107575;28;20812;-21
2021/06/28 02:22:33;;;;;;;15.52;8.05;;;;;;;22.27;66.97;100163.69;5107475;28;20036;-21
2021/06/28 02:24:58;;;;;;;14.82;9.85;;;;;;;22.38;66.84;100159.75;5107431;28;20081;-21
2021/06/28 02:27:24;;;;;;;29.40;10.35;;;;;;;22.59;66.07;100160.22;5107418;28;20039;-21
2021/06/28 02:29:49;;;;;;;14.50;7.78;;;;;;;22.69;65.35;100167.41;5107078;28;20499;-21
2021/06/28 02:32:15;;;;;;;24.20;10.50;;;;;;;22.40;66.65;100162.16;5107357;28;20039;-21
2021/06/28 02:34:40;;;;;;;14.90;10.52;;;;;;;22.07;67.93;100149.31;5107489;28;20031;-21
2021/06/28 02:37:06;;;;;;;16.27;10.27;;;;;;;21.46;69.98;100139.25;5107237;28;20043;-21
2021/06/28 02:39:31;;;;;;;24.33;10.32;;;;;;;21.53;70.25;100150.56;5089025;28;20034;-21
2021/06/28 02:41:57;;;;;;;13.45;8.85;;;;;;;21.51;70.36;100150.03;5107252;28;20031;-21
2021/06/28 02:44:22;;;;;;;19.40;10.10;;;;;;;21.86;68.96;100147.97;5107313;28;20067;-21
2021/06/28 02:46:48;;;;;;;17.40;9.43;;;;;;;21.87;68.53;100144.97;5107449;28;20031;-21
2021/06/28 02:49:13;;;;;;;14.25;9.75;;;;;;;22.24;66.59;100148.00;5107377;28;20027;-21
2021/06/28 02:51:38;;;;;;;15.07;9.63;;;;;;;22.50;65.54;100163.94;5089342;28;20020;-21
2021/06/28 02:54:04;;;;;;;14.18;8.15;;;;;;;22.44;65.45;100157.75;5107035;28;20100;-21
2021/06/28 02:56:29;;;;;;;13.50;8.80;;;;;;;22.26;66.03;100156.66;5107183;28;20032;-21
2021/06/28 02:58:57;;;;;;;14.43;9.40;;;;;;;22.11;67.32;100165.00;5107257;28;20034;-21
2021/06/28 03:01:24;;;;;;;20.75;9.45;;;;;;;22.45;66.18;100165.63;5107483;28;20475;-21
2021/06/28 03:03:49;;;;;;;15.20;9.67;;;;;;;22.46;66.26;100164.50;5107244;28;20096;-21
2021/06/28 03:06:15;;;;;;;15.20;9.40;;;;;;;21.86;68.43;100161.53;5107470;28;20031;-21
2021/06/28 03:08:41;;;;;;;16.98;10.25;;;;;;;21.37;70.20;100170.78;5106583;28;20061;-21
2021/06/28 03:11:07;;;;;;;18.95;10.80;;;;;;;21.48;70.14;100166.91;5106871;28;20406;-21
2021/06/28 03:13:32;;;;;;;16.02;10.63;;;;;;;20.96;71.66;100154.94;5107178;28;20036;-21
2021/06/28 03:15:58;;;;;;;15.82;11.40;;;;;;;21.19;71.35;100172.34;5106697;28;20092;-21
2021/06/28 03:18:23;;;;;;;15.77;10.15;;;;;;;21.67;71.14;100167.75;5107051;28;20031;-21
2021/06/28 03:20:49;;;;;;;21.70;10.00;;;;;;;21.81;69.76;100170.56;5106998;28;20032;-21
2021/06/28 03:23:15;;;;;;;18.02;10.02;;;;;;;21.88;69.13;100162.03;5109861;28;20039;-21
2021/06/28 03:25:40;;;;;;;21.02;10.50;;;;;;;21.90;69.31;100165.28;5110828;28;20032;-21
2021/06/28 03:28:06;;;;;;;18.25;10.25;;;;;;;20.98;72.66;100171.72;5110673;28;20071;-21
2021/06/28 03:30:31;;;;;;;17.73;11.25;;;;;;;20.87;73.41;100179.16;5110867;28;20023;-21
2021/06/28 03:32:57;;;;;;;16.15;10.38;;;;;;;20.78;74.01;100173.53;5110595;28;20039;-21
2021/06/28 03:35:23;;;;;;;19.27;11.15;;;;;;;20.81;73.54;100151.28;5092628;28;20466;-21
2021/06/28 03:37:48;;;;;;;17.35;10.55;;;;;;;21.14;72.97;100173.19;5110334;28;20063;-21
2021/06/28 03:40:14;;;;;;;21.50;11.80;;;;;;;21.24;72.45;100186.66;5110822;28;20027;-21
2021/06/28 03:42:39;;;;;;;17.20;10.05;;;;;;;21.29;72.45;100177.66;5110578;28;20034;-21
2021/06/28 03:45:06;;;;;;;16.35;10.73;;;;;;;21.14;73.16;100181.31;5110509;28;20028;-21
2021/06/28 03:47:32;;;;;;;17.27;11.20;;;;;;;21.25;72.82;100172.00;5092570;28;20475;-21
2021/06/28 03:49:57;;;;;;;24.02;11.43;;;;;;;21.33;72.99;100194.16;5110289;28;20081;-21
2021/06/28 03:52:23;;;;;;;17.98;10.82;;;;;;;21.40;72.16;100194.63;5110231;28;20031;-21
2021/06/28 03:54:48;;;;;;;17.90;10.25;;;;;;;21.60;71.71;100194.44;5110386;28;20043;-21
2021/06/28 03:57:14;;;;;;;16.08;10.10;;;;;;;21.41;72.23;100191.66;5110300;28;20051;-21
2021/06/28 03:59:39;;;;;;;15.45;10.48;;;;;;;21.22;73.15;100202.41;5110488;28;20402;-21
2021/06/28 04:02:05;;;;;;;15.63;11.10;;;;;;;21.04;74.11;100192.28;5110102;28;20027;-21
2021/06/28 04:04:31;;;;;;;18.02;10.75;;;;;;;20.84;75.21;100202.22;5110068;28;20032;-21
2021/06/28 04:06:56;;;;;;;18.70;11.02;;;;;;;20.71;75.54;100197.44;5109859;28;20061;-21
2021/06/28 04:09:22;;;;;;;17.25;10.77;;;;;;;20.79;75.42;100196.81;5092115;28;20044;-21
2021/06/28 04:11:47;;;;;;;17.27;10.05;;;;;;;20.95;75.22;100205.63;5109831;28;20032;-21
2021/06/28 04:14:13;;;;;;;14.27;10.55;;;;;;;21.07;74.68;100191.72;5110102;28;20770;-21
2021/06/28 04:16:38;;;;;;;13.32;10.00;;;;;;;21.28;73.84;100203.16;5109883;28;20048;-21
2021/06/28 04:19:04;;;;;;;17.35;10.65;;;;;;;21.40;74.12;100205.50;5109875;28;20073;-21
2021/06/28 04:21:34;;;;;;;16.00;9.48;;;;;;;21.37;74.22;100212.31;5091529;28;20032;-21
2021/06/28 04:24:02;;;;;;;15.27;9.85;;;;;;;21.64;73.97;100203.63;5109573;28;20035;-21
2021/06/28 04:26:28;;;;;;;13.10;9.73;;;;;;;21.84;72.92;100209.88;5109942;28;20797;-21
2021/06/28 04:28:53;;;;;;;14.98;9.38;;;;;;;21.74;72.98;100204.56;5109537;28;20024;-21
2021/06/28 04:31:18;;;;;;;15.73;9.00;;;;;;;21.66;73.25;100201.41;5109605;28;20023;-21
2021/06/28 04:33:44;;;;;;;16.23;9.23;;;;;;;21.88;72.62;100200.06;5108689;28;20036;-21
2021/06/28 04:36:09;;;;;;;16.10;9.90;;;;;;;21.84;73.40;100201.75;5109390;28;20035;-21
2021/06/28 04:38:35;;;;;;;13.75;9.57;;;;;;;22.17;71.47;100194.53;5109451;28;20035;-21
2021/06/28 04:41:00;;;;;;;13.80;8.73;;;;;;;22.21;70.85;100197.44;5109352;28;20559;-21
2021/06/28 04:43:26;;;;;;;14.55;10.00;;;;;;;21.89;72.31;100195.47;5109087;28;20035;-21
2021/06/28 04:45:51;;;;;;;14.05;9.95;;;;;;;21.97;72.44;100201.03;5109179;28;20039;-21
2021/06/28 04:48:17;;;;;;;14.05;9.80;;;;;;;22.07;71.19;100200.91;5109396;28;20039;-21
2021/06/28 04:50:42;;;;;;;17.90;10.27;;;;;;;21.98;71.50;100207.28;5109174;28;20027;-21
2021/06/28 04:53:08;;;;;;;16.75;9.68;;;;;;;22.18;70.84;100208.91;5109188;28;20035;-21
2021/06/28 04:55:33;;;;;;;16.73;9.77;;;;;;;22.19;71.06;100199.66;5109325;28;20035;-21
2021/06/28 04:57:59;;;;;;;20.23;10.70;;;;;;;22.43;70.60;100216.75;5109063;28;20060;-21
2021/06/28 05:00:25;;;;;;;18.02;10.20;;;;;;;22.54;70.35;100213.88;5109151;28;20233;-21
2021/06/28 05:02:50;;;;;;;14.35;10.13;;;;;;;22.67;69.93;100216.63;5108855;28;20501;-21
2021/06/28 05:05:16;;;;;;;16.52;10.38;;;;;;;22.83;69.16;100214.47;5108900;28;20024;-21
2021/06/28 05:07:42;;;;;;;14.10;9.82;;;;;;;22.91;68.10;100214.91;5108661;28;20096;-21
2021/06/28 05:10:08;;;;;;;17.52;10.15;;;;;;;23.30;67.60;100221.88;5108502;28;20055;-22
2021/06/28 05:12:34;;;;;;;13.63;9.98;;;;;;;23.24;67.91;100221.97;5108636;28;20035;-21
2021/06/28 05:14:59;;;;;;;19.35;9.30;;;;;;;23.38;67.43;100226.63;5108747;28;20036;-21
2021/06/28 05:17:25;;;;;;;13.85;9.10;;;;;;;23.26;68.37;100222.47;5090546;28;20035;-21
2021/06/28 05:19:51;;;;;;;18.45;9.73;;;;;;;23.12;68.18;100224.34;5108278;28;20028;-21
2021/06/28 05:22:16;;;;;;;15.82;9.38;;;;;;;23.08;68.67;100230.69;5108749;28;20024;-21
2021/06/28 05:24:42;;;;;;;14.00;9.23;;;;;;;22.84;69.33;100237.84;5108705;28;20081;-21
2021/06/28 05:27:07;;;;;;;14.68;9.32;;;;;;;22.99;68.37;100233.28;5108450;28;20467;-21
2021/06/28 05:29:32;;;;;;;15.10;8.75;;;;;;;22.61;68.37;100225.16;5108458;28;20027;-21
2021/06/28 05:31:58;;;;;;;15.18;8.98;;;;;;;22.90;68.60;100241.28;5108535;28;20495;-21
2021/06/28 05:34:23;;;;;;;17.63;9.88;;;;;;;23.20;67.23;100234.53;5090370;28;20028;-21
2021/06/28 05:36:49;;;;;;;21.20;13.07;;;;;;;23.70;65.78;100246.69;5108684;28;20800;-21
2021/06/28 05:39:14;;;;;;;18.77;9.20;;;;;;;23.78;65.99;100243.28;5108345;28;20028;-21
2021/06/28 05:41:40;;;;;;;16.35;8.27;;;;;;;23.55;66.25;100239.63;5089997;28;20055;-23
2021/06/28 05:44:05;;;;;;;16.23;8.18;;;;;;;23.78;63.98;100232.41;5108091;28;20494;-22
2021/06/28 05:46:31;;;;;;;17.52;8.02;;;;;;;23.63;63.43;100239.72;5107235;28;20028;-24
2021/06/28 05:48:56;;;;;;;14.93;8.63;;;;;;;23.73;64.43;100249.63;5108231;28;20107;-23
2021/06/28 05:51:22;;;;;;;15.82;8.95;;;;;;;23.84;64.40;100255.69;5108228;28;20038;-24
2021/06/28 05:53:48;;;;;;;15.70;8.60;;;;;;;23.53;64.67;100253.53;5107719;28;20036;-24
2021/06/28 05:56:13;;;;;;;12.85;8.27;;;;;;;23.55;65.21;100251.31;5107840;28;20168;-24
2021/06/28 05:58:39;;;;;;;14.73;8.20;;;;;;;23.54;65.27;100247.00;5107948;28;20517;-25
2021/06/28 06:01:04;;;;;;;17.58;9.20;;;;;;;23.79;64.60;100250.38;5107974;28;20031;-23
2021/06/28 06:03:30;;;;;;;14.43;8.55;;;;;;;23.88;64.41;100250.47;5108009;28;20092;-23
2021/06/28 06:05:55;;;;;;;13.10;8.48;;;;;;;24.13;64.36;100239.03;5107250;28;20467;-25
2021/06/28 06:08:23;;;;;;;15.20;8.80;;;;;;;24.24;63.29;100240.41;5107357;28;20451;-23
2021/06/28 06:10:50;;;;;;;12.10;8.27;;;;;;;24.27;63.39;100255.34;5107212;28;20024;-23
2021/06/28 06:13:16;;;;;;;13.70;7.97;;;;;;;24.47;63.12;100249.44;5107357;28;20031;-24
2021/06/28 06:15:41;;;;;;;11.63;7.80;;;;;;;24.44;62.50;100241.88;5107572;28;20077;-23
2021/06/28 06:18:06;;;;;;;13.40;8.35;;;;;;;24.56;62.63;100265.94;5107130;28;20059;-23
2021/06/28 06:20:32;;;;;;;13.70;8.20;;;;;;;24.47;61.47;100265.00;5107763;28;20403;-22
2021/06/28 06:22:57;;;;;;;13.60;7.90;;;;;;;24.38;61.46;100259.47;5107195;28;20036;-24
2021/06/28 06:25:23;;;;;;;13.75;7.57;;;;;;;24.36;62.26;100264.44;5107546;28;20498;-23
2021/06/28 06:27:48;;;;;;;17.10;8.38;;;;;;;24.56;61.03;100265.09;5107164;28;20104;-23
2021/06/28 06:30:14;;;;;;;19.05;11.32;;;;;;;24.62;62.19;100244.78;5107504;28;20019;-23
2021/06/28 06:32:40;;;;;;;16.58;8.23;;;;;;;24.74;61.13;100269.56;5107616;28;20047;-23
2021/06/28 06:35:06;;;;;;;15.35;8.10;;;;;;;25.01;61.36;100262.41;5107088;28;20511;-23
2021/06/28 06:37:32;;;;;;;16.98;8.35;;;;;;;25.18;60.88;100262.50;5107214;28;20084;-23
2021/06/28 06:39:58;;;;;;;13.35;8.68;;;;;;;25.35;60.05;100255.56;5106800;28;20024;-23
2021/06/28 06:42:23;;;;;;;14.85;8.05;;;;;;;25.14;60.23;100245.16;5105539;28;20038;-23
2021/06/28 06:44:49;;;;;;;15.27;8.23;;;;;;;25.58;59.94;100248.94;5106891;28;20649;-23
2021/06/28 06:47:14;;;;;;;14.50;7.70;;;;;;;25.39;58.69;100245.63;5107168;28;20058;-23
2021/06/28 06:49:40;;;;;;;18.58;8.57;;;;;;;25.57;60.22;100252.78;5107015;28;20024;-23
2021/06/28 06:52:06;;;;;;;12.90;8.15;;;;;;;25.70;58.58;100251.03;5106844;28;20043;-23
2021/06/28 06:54:31;;;;;;;20.25;8.55;;;;;;;25.61;59.43;100252.97;5107145;28;20059;-23
2021/06/28 06:56:57;;;;;;;13.45;8.45;;;;;;;25.62;58.70;100247.19;5108304;28;20047;-23
2021/06/28 06:59:22;;;;;;;14.45;9.27;;;;;;;25.57;59.79;100247.31;5111334;28;20046;-23
2021/06/28 07:01:48;;;;;;;13.82;8.85;;;;;;;25.97;60.06;100250.06;5111145;28;20039;-23
2021/06/28 07:04:14;;;;;;;13.73;9.63;;;;;;;26.11;57.57;100238.16;5110978;28;20043;-23
2021/06/28 07:06:41;;;;;;;14.02;8.05;;;;;;;25.97;57.40;100247.31;5110782;28;20044;-23
2021/06/28 07:09:06;;;;;;;17.77;8.52;;;;;;;25.78;57.75;100244.00;5110700;28;20055;-23
2021/06/28 07:11:32;;;;;;;14.20;7.95;;;;;;;26.19;57.59;100257.31;5110873;28;20035;-23
2021/06/28 07:13:59;;;;;;;10.43;8.07;;;;;;;26.24;56.75;100242.72;5110660;28;20453;-23
2021/06/28 07:16:30;;;;;;;12.40;8.70;;;;;;;26.16;58.13;100229.84;5110845;28;20039;-23
2021/06/28 07:18:56;;;;;;;11.82;8.05;;;;;;;26.44;56.11;100247.53;5110839;28;20036;-23
2021/06/28 07:21:21;;;;;;;14.93;9.05;;;;;;;26.32;56.88;100239.19;5110808;28;20095;-23
2021/06/28 07:23:48;;;;;;;17.45;8.95;;;;;;;26.59;57.38;100242.75;5110526;28;20032;-23
2021/06/28 07:26:14;;;;;;;12.88;8.45;;;;;;;26.69;57.43;100253.38;5110607;28;20486;-23
2021/06/28 07:28:39;;;;;;;10.27;7.55;;;;;;;26.79;56.06;100235.81;5110588;28;20085;-23
2021/06/28 07:31:05;;;;;;;12.73;8.40;;;;;;;26.83;55.87;100248.53;5111001;28;20479;-23
2021/06/28 07:33:31;;;;;;;11.68;8.27;;;;;;;26.97;56.53;100244.78;5110828;28;20395;-23
2021/06/28 07:35:58;;;;;;;24.58;9.60;;;;;;;27.05;56.04;100238.50;5110329;28;20035;-23
2021/06/28 07:38:24;;;;;;;16.73;9.52;;;;;;;27.29;56.68;100253.63;5110539;28;20047;-23
2021/06/28 07:40:49;;;;;;;13.95;8.43;;;;;;;27.41;56.13;100238.09;5110699;28;20035;-23
2021/06/28 07:43:16;;;;;;;14.18;8.27;;;;;;;27.30;55.98;100225.09;5110480;28;20035;-23
2021/06/28 07:45:42;;;;;;;13.85;8.38;;;;;;;27.85;54.58;100249.66;5110206;28;20483;-23
2021/06/28 07:48:07;;;;;;;14.85;8.07;;;;;;;27.59;53.59;100241.56;5110724;28;20035;-23
2021/06/28 07:50:33;;;;;;;15.90;8.10;;;;;;;27.81;53.39;100251.47;5110171;28;20498;-23
2021/06/28 07:52:58;;;;;;;13.82;7.28;;;;;;;27.90;52.04;100245.97;5110354;28;20070;-23
2021/06/28 07:55:24;;;;;;;14.75;8.13;;;;;;;28.00;52.07;100244.78;5110325;28;20028;-23
2021/06/28 07:57:49;;;;;;;10.80;7.78;;;;;;;28.11;50.99;100228.75;5110109;28;20032;-23
2021/06/28 08:00:16;;;;;;;13.40;8.00;;;;;;;28.42;52.37;100253.03;5109791;28;20019;-23
2021/06/28 08:02:42;;;;;;;12.30;6.93;;;;;;;28.38;50.98;100247.44;5110227;28;20084;-23
2021/06/28 08:05:08;;;;;;;15.18;7.25;;;;;;;28.44;51.04;100254.31;5109874;28;20034;-23
2021/06/28 08:07:34;;;;;;;12.10;6.78;;;;;;;28.32;50.78;100246.03;5109865;28;20039;-23
2021/06/28 08:10:00;;;;;;;10.05;6.10;;;;;;;28.34;48.12;100230.03;5108208;28;20550;-20
2021/06/28 08:12:25;;;;;;;12.73;6.53;;;;;;;28.58;49.83;100242.28;5109894;28;20038;-20
2021/06/28 08:14:51;;;;;;;11.50;6.88;;;;;;;28.95;48.44;100240.50;5109484;28;20028;-20
2021/06/28 08:17:16;;;;;;;12.07;6.18;;;;;;;28.92;48.05;100234.88;5109904;28;20023;-20
2021/06/28 08:19:44;;;;;;;12.82;6.40;;;;;;;29.01;46.89;100232.81;5109316;28;20032;-21
2021/06/28 08:22:10;;;;;;;9.60;6.65;;;;;;;29.38;46.18;100241.16;5109724;28;20062;-20
2021/06/28 08:24:36;;;;;;;10.68;5.57;;;;;;;29.25;45.61;100227.41;5109962;28;20063;-20
2021/06/28 08:27:01;;;;;;;12.38;6.53;;;;;;;29.72;44.91;100239.16;5109616;28;20031;-20
2021/06/28 08:29:27;;;;;;;9.75;6.15;;;;;;;29.56;45.43;100241.75;5109386;28;20055;-20
2021/06/28 08:31:52;;;;;;;9.75;5.50;;;;;;;29.56;44.81;100242.56;5109300;28;20492;-20
2021/06/28 08:34:18;;;;;;;11.00;7.05;;;;;;;29.97;43.67;100235.22;5109413;28;20055;-20
2021/06/28 08:36:45;;;;;;;10.38;5.75;;;;;;;29.83;43.18;100235.63;5109584;28;20847;-20
2021/06/28 08:39:10;;;;;;;11.35;5.35;;;;;;;29.59;42.80;100219.91;5109344;28;20766;-20
2021/06/28 08:41:36;;;;;;;9.13;5.05;;;;;;;29.90;40.84;100229.53;5109476;28;20039;-20
2021/06/28 08:44:01;;;;;;;8.85;4.93;;;;;;;30.10;40.59;100235.22;5074031;28;20047;-20
2021/06/28 08:46:27;;;;;;;7.10;4.85;;;;;;;30.13;42.25;100229.81;5108824;28;20024;-21
2021/06/28 08:48:53;;;;;;;7.25;5.22;;;;;;;30.23;41.32;100225.78;5090699;28;20034;-20
2021/06/28 08:51:20;;;;;;;11.68;5.75;;;;;;;30.12;41.83;100222.75;5090936;28;20027;-20
2021/06/28 08:53:52;;;;;;;7.45;5.00;;;;;;;30.34;41.36;100224.22;5090782;28;20035;-20
2021/06/28 08:56:17;;;;;;;14.10;7.45;;;;;;;30.69;40.53;100225.53;5108972;28;20031;-20
2021/06/28 08:58:43;;;;;;;8.52;4.68;;;;;;;30.75;38.82;100230.47;5109098;28;20035;-20
2021/06/28 09:01:09;;;;;;;8.93;4.75;;;;;;;30.80;39.65;100215.63;5108973;28;20055;-20
2021/06/28 09:03:34;;;;;;;8.38;5.25;;;;;;;30.93;38.12;100208.13;5108760;28;20410;-20
2021/06/28 09:06:06;;;;;;;8.55;5.10;;;;;;;31.06;38.37;100212.44;5108367;28;20487;-20
2021/06/28 09:08:34;;;;;;;8.45;4.43;;;;;;;31.04;37.62;100211.97;5108477;28;20056;-20
2021/06/28 09:11:00;;;;;;;10.65;5.05;;;;;;;31.07;37.47;100197.47;5108378;28;20031;-20
2021/06/28 09:13:41;;;;;;;7.20;3.78;;;;;;;30.87;35.22;100220.53;5108617;28;20047;-20
2021/06/28 09:16:21;;;;;;;7.38;4.45;;;;;;;31.08;36.46;100204.59;5108213;28;20044;-21
2021/06/28 09:19:08;;;;;;;6.65;4.15;;;;;;;31.51;35.38;100221.44;5108441;28;20027;-20
2021/06/28 09:21:41;;;;;;;5.88;4.15;;;;;;;31.69;36.89;100199.78;5107592;28;20039;-20
2021/06/28 09:24:22;;;;;;;10.30;4.43;;;;;;;31.69;34.36;100210.81;5107918;28;20031;-20
2021/06/28 09:26:47;;;;;;;9.15;4.72;;;;;;;31.70;35.00;100212.44;5108440;28;20387;-20
2021/06/28 09:29:13;;;;;;;7.85;3.92;;;;;;;32.01;33.60;100219.84;5108234;28;20034;-20
2021/06/28 09:31:43;;;;;;;6.70;3.72;;;;;;;32.30;32.16;100224.00;5108430;28;20023;-20
2021/06/28 09:34:12;;;;;;;7.90;4.40;;;;;;;32.25;32.55;100198.69;5108223;28;20031;-20
2021/06/28 09:36:42;;;;;;;11.48;5.13;;;;;;;32.54;33.55;100216.59;5108195;28;20084;-20
2021/06/28 09:39:18;;;;;;;7.97;4.03;;;;;;;32.37;31.81;100193.81;5108036;28;20035;-20
2021/06/28 09:41:44;;;;;;;9.13;4.40;;;;;;;32.48;33.36;100213.34;5107904;28;20023;-20
2021/06/28 09:44:09;;;;;;;8.18;4.68;;;;;;;32.71;33.22;100194.09;5089632;28;20555;-20
2021/06/28 09:46:38;;;;;;;7.05;4.30;;;;;;;32.57;32.50;100204.84;5108093;28;20028;-20
2021/06/28 09:49:04;;;;;;;8.60;4.45;;;;;;;32.71;32.10;100194.09;5107898;28;20035;-20
2021/06/28 09:51:34;;;;;;;8.30;4.25;;;;;;;32.41;31.82;100202.97;5108136;28;20034;-20
2021/06/28 09:54:05;;;;;;;8.13;4.00;;;;;;;32.54;30.50;100205.56;5107444;28;20030;-20
2021/06/28 09:56:37;;;;;;;7.53;4.30;;;;;;;32.97;30.56;100192.59;5108121;28;20092;-20
2021/06/28 09:59:32;;;;;;;7.97;3.95;;;;;;;32.72;28.87;100203.97;5107657;28;20030;-22
2021/06/28 10:02:14;;;;;;;6.47;3.78;;;;;;;32.61;28.45;100194.69;5107366;28;20035;-20
2021/06/28 10:04:57;;;;;;;8.27;4.13;;;;;;;32.81;29.79;100187.97;5107756;28;20468;-20
2021/06/28 10:07:54;;;;;;;8.10;4.03;;;;;;;33.22;31.75;100195.78;5106392;28;20550;-20
2021/06/28 10:10:31;;;;;;;6.72;4.25;;;;;;;33.20;29.67;100189.84;5089059;28;20059;-20
2021/06/28 10:12:56;;;;;;;7.10;3.93;;;;;;;33.01;28.97;100201.72;5107292;28;20034;-20
2021/06/28 10:15:26;;;;;;;5.90;3.97;;;;;;;32.83;29.09;100191.19;5107737;28;20475;-20
2021/06/28 10:17:51;;;;;;;7.43;3.95;;;;;;;33.16;29.39;100186.22;5107578;28;20024;-20
2021/06/28 10:20:22;;;;;;;6.65;4.10;;;;;;;33.32;28.17;100189.66;5107440;28;20398;-20
2021/06/28 10:22:48;;;;;;;5.70;3.80;;;;;;;33.36;29.76;100184.19;5107671;28;20493;-20
2021/06/28 10:25:15;;;;;;;5.78;4.22;;;;;;;33.23;27.69;100167.00;5107819;28;20746;-20
2021/06/28 10:27:40;;;;;;;8.90;3.80;;;;;;;33.49;27.97;100177.28;5107794;28;20138;-20
2021/06/28 10:30:08;;;;;;;5.93;3.65;;;;;;;33.65;28.83;100171.59;5107207;28;20027;-20
2021/06/28 10:32:34;;;;;;;20.85;13.90;;;;;;;34.10;29.93;100177.34;5106788;28;20059;-20
2021/06/28 10:35:00;;;;;;;12.63;6.88;;;;;;;33.90;28.16;100149.03;5072273;28;20034;-21
2021/06/28 10:37:29;;;;;;;6.15;4.07;;;;;;;33.68;28.12;100175.63;5088877;28;20536;-20
2021/06/28 10:39:55;;;;;;;5.15;3.65;;;;;;;33.70;28.52;100171.28;5107408;28;20023;-20
2021/06/28 10:42:29;;;;;;;5.43;3.80;;;;;;;33.80;28.78;100169.84;5107323;28;20111;-21
2021/06/28 10:44:54;;;;;;;6.90;3.92;;;;;;;34.16;27.10;100170.34;5107178;28;20042;-20
2021/06/28 10:47:20;;;;;;;6.68;3.97;;;;;;;34.26;26.79;100175.19;5088777;28;20032;-20
2021/06/28 10:49:46;;;;;;;6.25;3.78;;;;;;;34.34;27.24;100168.56;5106822;28;20031;-20
2021/06/28 10:52:14;;;;;;;8.68;3.78;;;;;;;34.50;27.69;100151.75;5107059;28;20039;-20
2021/06/28 10:54:39;;;;;;;7.88;3.78;;;;;;;34.17;27.44;100172.72;5107349;28;20161;-20
2021/06/28 10:57:05;;;;;;;5.55;3.60;;;;;;;33.98;27.95;100156.25;5107504;28;20053;-20
2021/06/28 10:59:49;;;;;;;5.45;3.50;;;;;;;34.51;27.40;100163.59;5106834;28;20337;-20
2021/06/28 11:02:14;;;;;;;7.07;3.70;;;;;;;34.44;27.88;100142.19;5107221;28;20503;-20
2021/06/28 11:04:53;;;;;;;5.88;3.67;;;;;;;34.10;28.34;100135.84;5106928;28;20127;-20
2021/06/28 11:07:18;;;;;;;6.03;3.72;;;;;;;34.60;28.14;100155.81;5106996;28;20117;-20
2021/06/28 11:09:49;;;;;;;7.70;3.95;;;;;;;34.95;24.56;100147.06;5106376;28;20067;-20
2021/06/28 11:12:17;;;;;;;5.60;3.78;;;;;;;34.80;25.43;100143.38;5107141;28;20035;-21
2021/06/28 11:14:46;;;;;;;6.00;3.78;;;;;;;34.76;25.68;100141.75;5107024;28;20081;-20